createdAt,value
2023-02-03T00:00:08.786Z,2.40
2023-02-03T00:02:59.691Z,3.50
2023-02-03T00:05:28.610Z,2.60
2023-02-03T00:07:56.854Z,3.40
2023-02-03T00:10:25.442Z,2.50
2023-02-03T00:12:54.077Z,2.60
2023-02-03T00:15:23.368Z,2.00
2023-02-03T00:17:51.606Z,2.90
2023-02-03T00:20:20.291Z,3.10
2023-02-03T00:22:48.674Z,3.60
2023-02-03T00:25:17.298Z,3.60
2023-02-03T00:27:45.855Z,2.20
2023-02-03T00:30:14.674Z,2.90
2023-02-03T00:32:42.799Z,1.40
2023-02-03T00:35:13.192Z,1.60
2023-02-03T00:37:41.480Z,1.50
2023-02-03T00:40:10.263Z,2.00
2023-02-03T00:42:38.612Z,1.10
2023-02-03T00:45:07.379Z,0.90
2023-02-03T00:47:35.782Z,1.10
2023-02-03T00:50:05.485Z,1.80
2023-02-03T00:52:33.604Z,1.20
2023-02-03T00:55:04.023Z,1.10
2023-02-03T00:57:32.626Z,0.90
2023-02-03T01:00:00.937Z,0.80
2023-02-03T01:02:29.096Z,1.10
2023-02-03T01:04:57.903Z,0.90
2023-02-03T01:07:27.731Z,1.20
2023-02-03T01:09:55.756Z,1.30
2023-02-03T01:12:23.847Z,0.90
2023-02-03T01:14:52.208Z,1.10
2023-02-03T01:17:20.275Z,0.70
2023-02-03T01:19:48.424Z,1.20
2023-02-03T01:22:18.458Z,1.40
2023-02-03T01:24:46.484Z,1.20
2023-02-03T01:27:14.915Z,1.30
2023-02-03T01:29:43.160Z,1.20
2023-02-03T01:32:11.168Z,1.50
2023-02-03T01:34:39.460Z,1.40
2023-02-03T01:37:07.664Z,1.50
2023-02-03T01:39:35.830Z,1.60
2023-02-03T01:42:04.267Z,2.00
2023-02-03T01:44:47.733Z,1.60
2023-02-03T01:47:22.294Z,1.80
2023-02-03T01:50:18.352Z,2.30
2023-02-03T01:52:54.376Z,1.90
2023-02-03T01:55:34.664Z,1.90
2023-02-03T01:58:19.862Z,1.90
2023-02-03T02:05:46.315Z,2.00
2023-02-03T02:08:18.461Z,2.00
2023-02-03T02:10:47.054Z,1.70
2023-02-03T02:13:17.601Z,1.70
2023-02-03T02:16:23.934Z,1.70
2023-02-03T02:19:31.156Z,2.00
2023-02-03T02:22:07.243Z,2.00
2023-02-03T02:24:57.648Z,1.90
2023-02-03T02:27:50.554Z,1.90
2023-02-03T02:30:25.141Z,2.10
2023-02-03T02:33:20.067Z,2.10
2023-02-03T02:36:24.447Z,1.80
2023-02-03T02:39:09.843Z,2.10
2023-02-03T02:41:49.852Z,1.80
2023-02-03T02:44:49.387Z,2.00
2023-02-03T02:47:20.295Z,2.30
2023-02-03T02:49:55.710Z,2.00
2023-02-03T02:52:26.573Z,2.20
2023-02-03T02:54:58.368Z,1.80
2023-02-03T02:57:29.167Z,2.30
2023-02-03T02:59:57.530Z,2.20
2023-02-03T03:02:34.103Z,2.50
2023-02-03T03:05:06.049Z,2.50
2023-02-03T03:07:59.474Z,2.80
2023-02-03T03:10:31.715Z,3.00
2023-02-03T03:13:06.107Z,2.80
2023-02-03T03:15:38.068Z,2.50
2023-02-03T03:18:13.337Z,2.10
2023-02-03T03:20:44.315Z,2.40
2023-02-03T03:23:22.777Z,2.70
2023-02-03T03:25:59.909Z,3.00
2023-02-03T03:28:41.053Z,2.20
2023-02-03T03:31:09.388Z,2.50
2023-02-03T03:33:38.184Z,2.10
2023-02-03T03:36:20.280Z,2.30
2023-02-03T03:39:09.327Z,2.40
2023-02-03T03:41:51.174Z,1.70
2023-02-03T03:44:21.578Z,1.50
2023-02-03T03:46:56.242Z,2.00
2023-02-03T03:49:26.690Z,1.70
2023-02-03T03:52:01.457Z,1.50
2023-02-03T03:54:32.276Z,1.60
2023-02-03T03:57:07.039Z,1.70
2023-02-03T03:59:40.429Z,1.80
2023-02-03T04:02:08.834Z,1.80
2023-02-03T04:04:39.002Z,1.70
2023-02-03T04:07:07.055Z,1.90
2023-02-03T04:09:37.121Z,2.20
2023-02-03T04:12:06.587Z,2.00
2023-02-03T04:14:38.864Z,2.30
2023-02-03T04:17:07.198Z,2.00
2023-02-03T04:19:35.187Z,2.30
2023-02-03T04:22:03.477Z,2.30
2023-02-03T04:24:31.861Z,2.20
2023-02-03T04:26:59.824Z,2.20
2023-02-03T04:29:28.004Z,2.40
2023-02-03T04:31:56.303Z,2.10
2023-02-03T04:34:24.373Z,1.80
2023-02-03T04:36:52.690Z,2.40
2023-02-03T04:39:21.147Z,2.20
2023-02-03T04:41:49.254Z,2.70
2023-02-03T04:44:17.402Z,2.50
2023-02-03T04:46:45.480Z,2.80
2023-02-03T04:49:13.433Z,2.70
2023-02-03T04:51:43.261Z,2.60
2023-02-03T04:54:11.955Z,2.60
2023-02-03T04:56:39.964Z,2.60
2023-02-03T04:59:08.650Z,2.50
2023-02-03T05:01:36.801Z,2.60
2023-02-03T05:04:05.127Z,2.30
2023-02-03T05:06:34.464Z,3.00
2023-02-03T05:09:02.608Z,3.10
2023-02-03T05:11:31.047Z,2.50
2023-02-03T05:13:59.247Z,2.40
2023-02-03T05:16:27.566Z,2.60
2023-02-03T05:18:55.619Z,3.10
2023-02-03T05:21:23.916Z,2.70
2023-02-03T05:23:52.247Z,2.50
2023-02-03T05:26:20.253Z,3.50
2023-02-03T05:28:48.435Z,2.50
2023-02-03T05:31:16.745Z,2.60
2023-02-03T05:33:44.818Z,2.10
2023-02-03T05:36:13.154Z,2.60
2023-02-03T05:38:42.524Z,2.00
2023-02-03T05:41:32.339Z,2.20
2023-02-03T05:44:00.477Z,2.20
2023-02-03T05:46:28.574Z,2.30
2023-02-03T05:48:56.932Z,2.40
2023-02-03T05:51:25.179Z,2.60
2023-02-03T05:53:53.857Z,2.90
2023-02-03T05:56:22.181Z,2.90
2023-02-03T05:58:53.353Z,2.60
2023-02-03T06:03:49.796Z,2.50
2023-02-03T06:06:18.515Z,2.50
2023-02-03T06:08:46.641Z,2.70
2023-02-03T06:11:14.824Z,2.80
2023-02-03T06:13:45.252Z,2.90
2023-02-03T06:16:13.384Z,3.00
2023-02-03T06:18:44.873Z,2.90
2023-02-03T06:21:13.854Z,2.60
2023-02-03T06:23:41.815Z,2.70
2023-02-03T06:26:10.277Z,3.10
2023-02-03T06:28:38.413Z,2.60
2023-02-03T06:31:07.162Z,2.80
2023-02-03T06:33:37.273Z,2.70
2023-02-03T06:36:06.286Z,2.60
2023-02-03T06:38:34.363Z,3.00
2023-02-03T06:41:03.243Z,2.80
2023-02-03T06:43:31.328Z,2.60
2023-02-03T06:45:59.420Z,2.70
2023-02-03T06:48:27.719Z,2.20
2023-02-03T06:50:56.198Z,2.70
2023-02-03T06:53:29.674Z,2.40
2023-02-03T06:55:57.794Z,3.40
2023-02-03T06:58:25.991Z,3.10
2023-02-03T07:00:57.034Z,3.00
2023-02-03T07:03:25.310Z,2.70
2023-02-03T07:05:53.316Z,3.00
2023-02-03T07:08:21.603Z,3.00
2023-02-03T07:10:54.486Z,3.20
2023-02-03T07:13:22.808Z,3.30
2023-02-03T07:15:50.981Z,2.90
2023-02-03T07:18:45.236Z,3.20
2023-02-03T07:21:10.537Z,3.50
2023-02-03T07:23:38.741Z,3.20
2023-02-03T07:26:07.795Z,4.30
2023-02-03T07:28:36.928Z,3.40
2023-02-03T07:31:05.338Z,3.20
2023-02-03T07:33:33.529Z,3.80
2023-02-03T07:36:02.229Z,3.50
2023-02-03T07:38:30.875Z,3.20
2023-02-03T07:40:59.077Z,3.10
2023-02-03T07:43:27.650Z,3.30
2023-02-03T07:45:55.685Z,3.10
2023-02-03T07:48:23.863Z,4.30
2023-02-03T07:50:53.052Z,2.80
2023-02-03T07:53:21.146Z,3.60
2023-02-03T07:55:49.149Z,2.90
2023-02-03T07:58:17.460Z,3.30
2023-02-03T08:00:45.610Z,4.20
2023-02-03T08:03:13.718Z,3.70
2023-02-03T08:05:42.022Z,3.30
2023-02-03T08:08:10.080Z,3.20
2023-02-03T08:10:38.211Z,3.20
2023-02-03T08:13:06.521Z,3.40
2023-02-03T08:15:34.522Z,3.80
2023-02-03T08:18:02.568Z,3.40
2023-02-03T08:20:31.078Z,3.60
2023-02-03T08:22:59.177Z,3.20
2023-02-03T08:25:27.204Z,3.80
2023-02-03T08:27:55.750Z,3.80
2023-02-03T08:30:25.194Z,4.40
2023-02-03T08:32:56.047Z,3.90
2023-02-03T08:35:24.531Z,3.60
2023-02-03T08:37:52.595Z,4.20
2023-02-03T08:40:20.782Z,3.40
2023-02-03T08:42:49.348Z,3.70
2023-02-03T08:45:17.424Z,4.00
2023-02-03T08:47:45.460Z,4.50
2023-02-03T08:50:18.341Z,4.00
2023-02-03T08:52:46.444Z,3.80
2023-02-03T08:55:14.863Z,4.20
2023-02-03T08:57:43.064Z,3.90
2023-02-03T09:00:11.864Z,3.70
2023-02-03T09:02:40.250Z,4.10
2023-02-03T09:05:08.937Z,3.50
2023-02-03T09:07:37.056Z,4.30
2023-02-03T09:10:05.490Z,3.90
2023-02-03T09:12:33.723Z,3.70
2023-02-03T09:15:01.754Z,4.80
2023-02-03T09:17:29.805Z,4.10
2023-02-03T09:19:57.879Z,4.10
2023-02-03T09:22:25.889Z,4.10
2023-02-03T09:24:54.224Z,4.60
2023-02-03T09:27:22.310Z,4.10
2023-02-03T09:29:50.284Z,4.50
2023-02-03T09:32:18.414Z,4.10
2023-02-03T09:34:49.400Z,4.40
2023-02-03T09:39:45.553Z,4.30
2023-02-03T09:42:51.538Z,3.90
2023-02-03T09:45:29.106Z,4.50
2023-02-03T09:48:05.657Z,4.30
2023-02-03T09:50:37.648Z,4.20
2023-02-03T09:53:23.618Z,4.10
2023-02-03T09:55:51.929Z,4.40
2023-02-03T09:58:23.100Z,4.10
2023-02-03T10:00:56.267Z,3.10
2023-02-03T10:03:27.735Z,3.70
2023-02-03T10:06:14.077Z,4.10
2023-02-03T10:08:42.031Z,3.60
2023-02-03T10:11:35.180Z,4.00
2023-02-03T10:14:06.176Z,4.60
2023-02-03T10:16:52.425Z,4.20
2023-02-03T10:19:26.344Z,4.20
2023-02-03T10:21:58.936Z,4.20
2023-02-03T10:24:50.865Z,4.50
2023-02-03T10:27:24.791Z,3.90
2023-02-03T10:30:04.885Z,4.60
2023-02-03T10:32:36.286Z,4.30
2023-02-03T10:35:12.074Z,4.50
2023-02-03T10:37:45.561Z,4.50
2023-02-03T10:40:15.498Z,4.40
2023-02-03T10:43:07.735Z,4.50
2023-02-03T10:45:39.749Z,4.50
2023-02-03T10:48:17.303Z,4.10
2023-02-03T10:50:50.033Z,4.60
2023-02-03T10:53:18.351Z,4.90
2023-02-03T10:55:50.494Z,4.30
2023-02-03T10:58:27.455Z,3.40
2023-02-03T11:01:15.478Z,3.10
2023-02-03T11:03:54.819Z,3.50
2023-02-03T11:06:23.007Z,3.60
2023-02-03T11:08:52.002Z,3.40
2023-02-03T11:11:25.056Z,3.30
2023-02-03T11:13:56.426Z,2.90
2023-02-03T11:16:24.836Z,3.10
2023-02-03T11:18:57.710Z,2.90
2023-02-03T11:21:40.681Z,2.60
2023-02-03T11:24:29.262Z,2.40
2023-02-03T11:27:03.145Z,2.70
2023-02-03T11:29:34.838Z,2.80
2023-02-03T11:32:24.383Z,2.40
2023-02-03T11:35:00.619Z,2.90
2023-02-03T11:37:33.612Z,2.80
2023-02-03T11:40:07.702Z,4.00
2023-02-03T11:42:43.734Z,3.30
2023-02-03T11:45:18.318Z,4.40
2023-02-03T11:48:15.446Z,3.70
2023-02-03T11:50:58.082Z,4.80
2023-02-03T11:53:56.547Z,4.20
2023-02-03T11:56:36.262Z,4.90
2023-02-03T11:59:41.105Z,5.00
2023-02-03T12:02:55.637Z,5.00
2023-02-03T12:05:49.395Z,6.20
2023-02-03T12:08:20.649Z,5.90
2023-02-03T12:10:59.112Z,5.90
2023-02-03T12:13:48.442Z,5.90
2023-02-03T12:16:49.263Z,5.90
2023-02-03T12:19:18.156Z,6.50
2023-02-03T12:21:52.539Z,7.10
2023-02-03T12:24:42.790Z,7.30
2023-02-03T12:27:45.030Z,7.40
2023-02-03T12:30:25.086Z,7.30
2023-02-03T12:33:02.551Z,7.60
2023-02-03T12:35:39.837Z,7.60
2023-02-03T12:38:30.028Z,8.20
2023-02-03T12:41:01.134Z,8.70
2023-02-03T12:43:52.577Z,9.00
2023-02-03T12:46:37.733Z,9.40
2023-02-03T12:49:16.257Z,9.30
2023-02-03T12:51:50.105Z,7.60
2023-02-03T12:54:47.911Z,9.20
2023-02-03T12:57:26.676Z,8.60
2023-02-03T13:00:09.486Z,9.10
2023-02-03T13:02:53.488Z,8.40
2023-02-03T13:05:30.225Z,8.60
2023-02-03T13:08:17.514Z,8.60
2023-02-03T13:10:50.672Z,7.80
2023-02-03T13:13:29.463Z,8.70
2023-02-03T13:15:58.519Z,8.40
2023-02-03T13:18:31.749Z,7.90
2023-02-03T13:21:00.212Z,8.70
2023-02-03T13:23:28.484Z,9.60
2023-02-03T13:26:06.168Z,8.00
2023-02-03T13:28:43.669Z,7.80
2023-02-03T13:31:30.604Z,7.50
2023-02-03T13:34:07.857Z,8.50
2023-02-03T13:37:02.531Z,7.50
2023-02-03T13:39:56.837Z,7.20
2023-02-03T13:42:43.360Z,7.30
2023-02-03T13:45:31.038Z,7.30
2023-02-03T13:48:20.660Z,7.00
2023-02-03T13:50:51.541Z,6.10
2023-02-03T13:53:22.441Z,6.80
2023-02-03T13:58:31.207Z,6.70
2023-02-03T14:01:05.996Z,6.10
2023-02-03T14:03:36.950Z,5.60
2023-02-03T14:06:30.546Z,5.00
2023-02-03T14:09:00.009Z,5.50
2023-02-03T14:11:37.981Z,4.60
2023-02-03T14:14:08.603Z,4.70
2023-02-03T14:16:44.563Z,4.60
2023-02-03T14:19:32.847Z,4.50
2023-02-03T14:22:03.058Z,4.10
2023-02-03T14:24:47.298Z,4.20
2023-02-03T14:27:18.408Z,3.70
2023-02-03T14:32:14.777Z,3.40
2023-02-03T14:34:49.718Z,4.10
2023-02-03T14:37:20.845Z,3.50
2023-02-03T14:40:10.454Z,3.40
2023-02-03T14:43:18.423Z,2.50
2023-02-03T14:46:12.559Z,2.70
2023-02-03T14:49:08.690Z,2.80
2023-02-03T14:52:14.728Z,2.40
2023-02-03T14:55:37.915Z,2.80
2023-02-03T14:58:36.919Z,2.80
2023-02-03T15:01:05.782Z,2.80
2023-02-03T15:03:35.508Z,3.00
2023-02-03T15:06:05.539Z,3.40
2023-02-03T15:08:37.179Z,3.40
2023-02-03T15:11:28.768Z,3.60
2023-02-03T15:14:19.642Z,3.90
2023-02-03T15:17:01.444Z,3.70
2023-02-03T15:19:34.392Z,3.90
2023-02-03T15:22:03.150Z,4.30
2023-02-03T15:24:37.273Z,3.50
2023-02-03T15:27:05.430Z,3.60
2023-02-03T15:29:36.225Z,4.00
2023-02-03T15:32:10.519Z,4.90
2023-02-03T15:34:47.411Z,5.30
2023-02-03T15:37:42.321Z,5.40
2023-02-03T15:40:20.632Z,5.80
2023-02-03T15:42:48.948Z,5.40
2023-02-03T15:45:28.985Z,4.80
2023-02-03T15:48:05.338Z,5.20
2023-02-03T15:50:39.809Z,4.60
2023-02-03T15:53:17.885Z,4.70
2023-02-03T15:55:54.520Z,4.50
2023-02-03T15:58:27.246Z,4.50
2023-02-03T16:01:02.166Z,5.40
2023-02-03T16:03:38.951Z,5.00
2023-02-03T16:06:18.731Z,5.50
2023-02-03T16:08:48.313Z,4.90
2023-02-03T16:11:24.413Z,5.20
2023-02-03T16:13:55.716Z,4.50
2023-02-03T16:16:26.754Z,5.20
2023-02-03T16:19:12.473Z,4.60
2023-02-03T16:21:52.942Z,5.70
2023-02-03T16:24:33.627Z,5.00
2023-02-03T16:27:28.005Z,5.50
2023-02-03T16:30:24.416Z,5.80
2023-02-03T16:33:29.228Z,5.60
2023-02-03T16:36:19.602Z,5.40
2023-02-03T16:39:09.774Z,5.50
2023-02-03T16:41:56.975Z,5.60
2023-02-03T16:44:43.721Z,5.20
2023-02-03T16:47:50.000Z,5.10
2023-02-03T16:50:42.712Z,4.70
2023-02-03T16:53:16.161Z,4.70
2023-02-03T16:55:44.609Z,4.40
2023-02-03T16:58:12.927Z,4.80
2023-02-03T17:00:44.378Z,4.60
2023-02-03T17:03:15.534Z,4.70
2023-02-03T17:08:13.604Z,4.50
2023-02-03T17:10:43.696Z,5.10
2023-02-03T17:13:12.205Z,4.40
2023-02-03T17:15:48.479Z,4.90
2023-02-03T17:18:17.162Z,4.40
2023-02-03T17:20:45.891Z,4.10
2023-02-03T17:23:16.649Z,3.90
2023-02-03T17:25:47.829Z,4.00
2023-02-03T17:30:44.869Z,4.60
2023-02-03T17:33:13.275Z,4.50
2023-02-03T17:35:42.942Z,3.80
2023-02-03T17:38:12.972Z,4.30
2023-02-03T17:54:42.515Z,3.00
2023-02-03T17:57:10.775Z,4.20
2023-02-03T17:59:39.731Z,3.70
2023-02-03T18:02:09.714Z,3.90
2023-02-03T18:04:38.096Z,3.90
2023-02-03T18:07:06.082Z,3.60
2023-02-03T18:09:34.241Z,3.50
2023-02-03T18:12:02.746Z,3.40
2023-02-03T18:14:30.808Z,3.90
2023-02-03T18:16:59.031Z,3.80
2023-02-03T18:19:27.235Z,3.50
2023-02-03T18:21:55.718Z,5.00
2023-02-03T18:24:28.208Z,3.80
2023-02-03T18:27:00.788Z,4.40
2023-02-03T18:29:29.614Z,3.70
2023-02-03T18:31:58.007Z,4.20
2023-02-03T18:34:26.072Z,3.80
2023-02-03T18:36:54.340Z,3.60
2023-02-03T18:39:22.772Z,4.20
2023-02-03T18:41:50.907Z,4.00
2023-02-03T18:44:19.219Z,3.10
2023-02-03T18:46:47.758Z,3.50
2023-02-03T18:49:15.751Z,3.60
2023-02-03T18:51:44.042Z,4.30
2023-02-03T18:54:12.946Z,3.90
2023-02-03T18:56:41.237Z,4.30
2023-02-03T18:59:11.300Z,4.40
2023-02-03T19:01:40.379Z,4.80
2023-02-03T19:04:08.595Z,4.70
2023-02-03T19:06:36.804Z,4.10
2023-02-03T19:09:05.978Z,4.70
2023-02-03T19:11:35.062Z,4.10
2023-02-03T19:14:03.852Z,4.50
2023-02-03T19:16:32.251Z,5.30
2023-02-03T19:19:00.732Z,5.10
2023-02-03T19:21:28.912Z,5.30
2023-02-03T19:23:57.418Z,4.20
2023-02-03T19:26:26.525Z,5.20
2023-02-03T19:28:57.016Z,4.70
2023-02-03T19:31:25.567Z,4.50
2023-02-03T19:33:53.729Z,4.30
2023-02-03T19:36:22.050Z,4.00
2023-02-03T19:38:50.294Z,5.30
2023-02-03T19:41:18.349Z,4.80
2023-02-03T19:43:47.770Z,4.90
2023-02-03T19:46:16.149Z,3.80
2023-02-03T19:48:44.656Z,4.50
2023-02-03T19:51:13.959Z,4.60
2023-02-03T19:53:42.346Z,4.10
2023-02-03T19:56:10.641Z,3.50
2023-02-03T19:58:39.546Z,4.60
2023-02-03T20:01:07.791Z,5.00
2023-02-03T20:03:36.063Z,5.30
2023-02-03T20:06:04.462Z,5.10
2023-02-03T20:08:32.812Z,3.30
2023-02-03T20:11:02.599Z,4.00
2023-02-03T20:13:32.144Z,4.20
2023-02-03T20:16:00.488Z,3.30
2023-02-03T20:18:28.744Z,4.30
2023-02-03T20:20:57.119Z,4.20
2023-02-03T20:23:25.879Z,3.70
2023-02-03T20:25:54.789Z,3.80
2023-02-03T20:28:25.777Z,5.90
2023-02-03T20:30:57.312Z,4.40
2023-02-03T20:33:28.261Z,4.00
2023-02-03T20:35:57.729Z,3.70
2023-02-03T20:38:25.851Z,4.00
2023-02-03T20:40:54.061Z,4.00
2023-02-03T20:43:25.203Z,3.60
2023-02-03T20:45:54.630Z,2.80
2023-02-03T20:48:25.584Z,3.40
2023-02-03T20:50:54.000Z,3.60
2023-02-03T20:53:24.654Z,4.40
2023-02-03T20:55:57.416Z,4.00
2023-02-03T20:58:32.563Z,4.30
2023-02-03T21:01:01.009Z,3.50
2023-02-03T21:03:48.322Z,3.90
2023-02-03T21:06:21.564Z,3.90
2023-02-03T21:09:14.497Z,3.30
2023-02-03T21:11:46.249Z,3.30
2023-02-03T21:14:25.987Z,3.70
2023-02-03T21:16:54.860Z,3.30
2023-02-03T21:19:32.760Z,3.60
2023-02-03T21:22:17.447Z,3.10
2023-02-03T21:24:52.073Z,3.40
2023-02-03T21:27:25.787Z,2.60
2023-02-03T21:29:56.965Z,3.00
2023-02-03T21:34:54.842Z,3.20
2023-02-03T21:37:23.271Z,2.80
2023-02-03T21:39:51.511Z,3.00
2023-02-03T21:42:42.442Z,3.70
2023-02-03T21:45:34.405Z,4.20
2023-02-03T21:48:23.877Z,5.10
2023-02-03T21:50:54.002Z,4.90
2023-02-03T21:53:35.794Z,4.50
2023-02-03T21:56:23.103Z,3.90
2023-02-03T21:58:53.809Z,3.90
2023-02-03T22:01:23.286Z,3.70
2023-02-03T22:03:53.827Z,3.60
2023-02-03T22:06:57.345Z,3.80
2023-02-03T22:09:27.093Z,3.60
2023-02-03T22:11:55.255Z,2.80
2023-02-03T22:14:23.972Z,3.10
2023-02-03T22:16:52.301Z,3.90
2023-02-03T22:19:20.617Z,3.60
2023-02-03T22:21:50.965Z,4.10
2023-02-03T22:24:19.219Z,3.60
2023-02-03T22:26:47.492Z,4.00
2023-02-03T22:29:15.897Z,3.70
2023-02-03T22:35:12.443Z,3.30
2023-02-03T22:37:40.930Z,3.70
2023-02-03T22:40:10.202Z,4.80
2023-02-03T22:42:52.835Z,4.30
2023-02-03T22:45:21.868Z,5.00
2023-02-03T22:47:49.935Z,5.10
2023-02-03T22:50:22.409Z,4.00
2023-02-03T22:55:27.829Z,3.60
2023-02-03T22:57:56.631Z,4.20
2023-02-03T23:00:25.413Z,3.10
2023-02-03T23:02:54.561Z,3.40
2023-02-03T23:05:23.065Z,3.40
2023-02-03T23:07:51.293Z,3.80
2023-02-03T23:10:25.781Z,3.50
2023-02-03T23:12:53.941Z,3.60
2023-02-03T23:15:22.655Z,3.60
2023-02-03T23:17:51.100Z,5.10
2023-02-03T23:20:19.582Z,4.40
2023-02-03T23:22:48.272Z,8.40
2023-02-03T23:25:16.402Z,5.00
2023-02-03T23:27:44.748Z,4.00
2023-02-03T23:30:14.086Z,5.20
2023-02-03T23:32:42.312Z,4.80
2023-02-03T23:35:29.286Z,5.60
2023-02-03T23:37:57.516Z,3.40
2023-02-03T23:40:25.662Z,2.70
2023-02-03T23:42:53.708Z,2.90
2023-02-03T23:45:21.762Z,2.20
2023-02-03T23:47:49.896Z,2.60
2023-02-03T23:50:19.063Z,2.90
2023-02-03T23:52:47.825Z,2.60
2023-02-03T23:55:18.918Z,2.60
2023-02-03T23:57:47.209Z,4.00
